Time;durP1;ratioP1;P1;durP2;ratioP2;P2;SDS_P1;SDS_P2;PMS_P1;PMS_P2;Temp;Humidity;BMP_temperature;BMP_pressure;BME280_temperature;BME280_humidity;BME280_pressure;Samples;Min_cycle;Max_cycle;Signal;HPM_P1;HPM_P2
2022/07/18 00:00:23;;;;;;;9.40;2.42;;;;;;;;;;5107618;28;20034;-66
2022/07/18 00:02:51;;;;;;;8.68;2.60;;;;;;;;;;5112530;28;20024;-66
2022/07/18 00:05:18;;;;;;;6.63;2.28;;;;;;;;;;5112749;28;20027;-66
2022/07/18 00:07:46;;;;;;;2.53;1.50;;;;;;;;;;5112655;28;20377;-66
2022/07/18 00:10:13;;;;;;;6.70;1.88;;;;;;;;;;5112912;28;20027;-66
2022/07/18 00:12:40;;;;;;;6.17;2.07;;;;;;;;;;5111756;28;20035;-66
2022/07/18 00:15:08;;;;;;;7.70;2.13;;;;;;;;;;5107430;28;20116;-66
2022/07/18 00:17:35;;;;;;;5.67;2.10;;;;;;;;;;5107350;28;20102;-66
2022/07/18 00:20:03;;;;;;;5.43;2.53;;;;;;;;;;5107693;28;20035;-66
2022/07/18 00:22:31;;;;;;;5.10;2.03;;;;;;;;;;5107151;28;20539;-66
2022/07/18 00:24:58;;;;;;;3.93;2.23;;;;;;;;;;5112038;28;20371;-66
2022/07/18 00:27:25;;;;;;;5.10;2.47;;;;;;;;;;5112202;28;20107;-66
2022/07/18 00:29:52;;;;;;;5.17;2.13;;;;;;;;;;5112384;28;20031;-66
2022/07/18 00:32:19;;;;;;;8.73;2.07;;;;;;;;;;5112272;28;20016;-66
2022/07/18 00:34:46;;;;;;;6.10;2.57;;;;;;;;;;5112547;28;20035;-66
2022/07/18 00:37:13;;;;;;;3.43;2.10;;;;;;;;;;5110464;28;20031;-66
2022/07/18 00:39:40;;;;;;;3.93;1.60;;;;;;;;;;5111715;28;20036;-66
2022/07/18 00:42:07;;;;;;;10.13;2.20;;;;;;;;;;5110998;28;20012;-66
2022/07/18 00:44:34;;;;;;;9.33;2.93;;;;;;;;;;5110926;28;20032;-66
2022/07/18 00:47:02;;;;;;;8.10;2.50;;;;;;;;;;5115199;28;20030;-66
2022/07/18 00:49:30;;;;;;;4.53;1.70;;;;;;;;;;5116476;28;20197;-66
2022/07/18 00:51:57;;;;;;;4.77;2.40;;;;;;;;;;5116403;28;20023;-64
2022/07/18 00:54:24;;;;;;;3.03;1.97;;;;;;;;;;5116377;28;20020;-67
2022/07/18 00:56:51;;;;;;;7.27;2.00;;;;;;;;;;5116518;28;20466;-63
2022/07/18 00:59:19;;;;;;;9.00;2.67;;;;;;;;;;5111827;28;20019;-64
2022/07/18 01:01:47;;;;;;;5.77;2.83;;;;;;;;;;5110431;28;20114;-64
2022/07/18 01:04:16;;;;;;;3.23;1.93;;;;;;;;;;5110870;28;20048;-64
2022/07/18 01:06:43;;;;;;;7.73;2.17;;;;;;;;;;5110902;28;20482;-65
2022/07/18 01:09:10;;;;;;;6.53;2.03;;;;;;;;;;5114836;28;20031;-64
2022/07/18 01:11:38;;;;;;;3.87;2.10;;;;;;;;;;5116143;28;20024;-62
2022/07/18 01:14:07;;;;;;;11.47;2.80;;;;;;;;;;5115945;28;20020;-65
2022/07/18 01:16:34;;;;;;;3.67;1.97;;;;;;;;;;5115552;28;20016;-66
2022/07/18 01:19:01;;;;;;;4.57;2.63;;;;;;;;;;5115785;28;20046;-66
2022/07/18 01:21:28;;;;;;;7.17;2.57;;;;;;;;;;5111516;28;20032;-66
2022/07/18 01:23:55;;;;;;;5.97;3.17;;;;;;;;;;5110214;28;20024;-65
2022/07/18 01:26:22;;;;;;;7.67;2.97;;;;;;;;;;5129620;27;20023;-63
2022/07/18 01:28:50;;;;;;;6.00;2.37;;;;;;;;;;5131241;27;20015;-65
2022/07/18 01:31:17;;;;;;;5.03;2.37;;;;;;;;;;5133917;27;20098;-67
2022/07/18 01:33:44;;;;;;;6.00;1.70;;;;;;;;;;5118841;27;20058;-64
2022/07/18 01:36:10;;;;;;;4.37;1.90;;;;;;;;;;5115659;28;20030;-67
2022/07/18 01:38:37;;;;;;;7.00;2.40;;;;;;;;;;5114614;28;20145;-63
2022/07/18 01:41:05;;;;;;;7.57;2.47;;;;;;;;;;5114455;28;20031;-63
2022/07/18 01:43:32;;;;;;;3.77;2.17;;;;;;;;;;5095749;28;20031;-64
2022/07/18 01:45:59;;;;;;;6.93;2.33;;;;;;;;;;5110031;28;20712;-64
2022/07/18 01:48:25;;;;;;;4.00;1.93;;;;;;;;;;5109588;28;20355;-68
2022/07/18 01:50:53;;;;;;;9.43;3.10;;;;;;;;;;5110275;28;20020;-64
2022/07/18 01:53:20;;;;;;;3.40;1.87;;;;;;;;;;5112885;28;20027;-66
2022/07/18 01:55:47;;;;;;;8.57;2.87;;;;;;;;;;5114702;28;20106;-66
2022/07/18 01:58:13;;;;;;;7.63;2.93;;;;;;;;;;5115288;28;20081;-66
2022/07/18 02:00:40;;;;;;;8.73;2.60;;;;;;;;;;5115107;28;20031;-66
2022/07/18 02:03:07;;;;;;;6.87;3.13;;;;;;;;;;5114740;28;20051;-66
2022/07/18 02:05:34;;;;;;;5.63;2.70;;;;;;;;;;5111340;28;20031;-67
2022/07/18 02:08:01;;;;;;;6.73;2.40;;;;;;;;;;5109804;28;20047;-65
2022/07/18 02:10:27;;;;;;;5.40;2.43;;;;;;;;;;5109624;28;20023;-62
2022/07/18 02:12:54;;;;;;;4.67;2.70;;;;;;;;;;5109457;28;20529;-65
2022/07/18 02:15:21;;;;;;;7.37;3.40;;;;;;;;;;5112161;28;20472;-67
2022/07/18 02:17:48;;;;;;;10.93;3.73;;;;;;;;;;5114991;28;20027;-66
2022/07/18 02:20:15;;;;;;;29.33;3.73;;;;;;;;;;5114195;28;20024;-65
2022/07/18 02:22:42;;;;;;;7.53;3.30;;;;;;;;;;5114278;28;20031;-65
2022/07/18 02:25:09;;;;;;;7.27;2.93;;;;;;;;;;5114253;28;20119;-65
2022/07/18 02:27:36;;;;;;;9.07;3.60;;;;;;;;;;5112000;28;20081;-66
2022/07/18 02:30:04;;;;;;;12.47;3.30;;;;;;;;;;5109524;28;20385;-65
2022/07/18 02:32:31;;;;;;;13.23;3.43;;;;;;;;;;5109265;28;20026;-64
2022/07/18 02:34:58;;;;;;;9.87;3.33;;;;;;;;;;5108904;28;20031;-67
2022/07/18 02:37:24;;;;;;;5.23;3.13;;;;;;;;;;5111029;28;20023;-63
2022/07/18 02:39:51;;;;;;;12.53;4.07;;;;;;;;;;5114404;28;20031;-63
2022/07/18 02:42:17;;;;;;;9.27;3.40;;;;;;;;;;5114298;28;20466;-64
2022/07/18 02:44:45;;;;;;;7.37;3.37;;;;;;;;;;5114152;28;20076;-64
2022/07/18 02:47:12;;;;;;;11.77;4.40;;;;;;;;;;5113704;28;20032;-62
2022/07/18 02:49:39;;;;;;;6.50;3.27;;;;;;;;;;5111791;28;20421;-64
2022/07/18 02:52:06;;;;;;;7.20;3.20;;;;;;;;;;5108486;28;20024;-65
2022/07/18 02:54:34;;;;;;;7.13;3.57;;;;;;;;;;5108778;28;20024;-66
2022/07/18 02:57:01;;;;;;;4.87;2.63;;;;;;;;;;5108883;28;20042;-68
2022/07/18 02:59:28;;;;;;;7.33;3.10;;;;;;;;;;5109226;28;20023;-64
2022/07/18 03:01:55;;;;;;;3.97;2.37;;;;;;;;;;5113948;28;20023;-64
2022/07/18 03:04:22;;;;;;;13.97;3.60;;;;;;;;;;5113626;28;20036;-64
2022/07/18 03:06:49;;;;;;;6.93;3.40;;;;;;;;;;5113778;28;20043;-64
2022/07/18 03:09:16;;;;;;;12.57;4.00;;;;;;;;;;5113534;28;20019;-65
2022/07/18 03:11:43;;;;;;;11.33;3.67;;;;;;;;;;5097421;28;20152;-64
2022/07/18 03:14:10;;;;;;;7.90;3.03;;;;;;;;;;5108123;28;20023;-63
2022/07/18 03:16:37;;;;;;;6.60;3.00;;;;;;;;;;5108140;28;20394;-63
2022/07/18 03:19:04;;;;;;;6.83;2.50;;;;;;;;;;5108260;28;20027;-64
2022/07/18 03:21:31;;;;;;;4.43;3.07;;;;;;;;;;5108836;28;20500;-62
2022/07/18 03:23:58;;;;;;;10.27;3.20;;;;;;;;;;5113542;27;20427;-64
2022/07/18 03:26:24;;;;;;;6.17;3.30;;;;;;;;;;5113392;28;20106;-63
2022/07/18 03:28:51;;;;;;;6.53;3.40;;;;;;;;;;5112762;28;20358;-63
2022/07/18 03:31:18;;;;;;;9.43;3.33;;;;;;;;;;5113229;28;20016;-64
2022/07/18 03:33:44;;;;;;;6.90;3.53;;;;;;;;;;5111185;28;20015;-67
2022/07/18 03:36:11;;;;;;;10.53;3.53;;;;;;;;;;5107215;28;20023;-65
2022/07/18 03:38:42;;;;;;;6.10;2.60;;;;;;;;;;5106242;28;20034;-65
2022/07/18 03:41:10;;;;;;;14.07;4.10;;;;;;;;;;5107215;28;20016;-64
2022/07/18 03:43:37;;;;;;;11.30;3.63;;;;;;;;;;5108463;28;20028;-65
2022/07/18 03:46:04;;;;;;;7.23;2.80;;;;;;;;;;5112371;28;20040;-64
2022/07/18 03:48:31;;;;;;;7.27;2.43;;;;;;;;;;5113041;28;20015;-65
2022/07/18 03:50:57;;;;;;;5.97;3.50;;;;;;;;;;5112634;28;20075;-64
2022/07/18 03:53:24;;;;;;;7.70;3.80;;;;;;;;;;5112974;28;20027;-64
2022/07/18 03:55:51;;;;;;;13.37;3.30;;;;;;;;;;5111622;28;20023;-65
2022/07/18 03:58:17;;;;;;;6.67;3.43;;;;;;;;;;5107263;28;20373;-64
2022/07/18 04:00:44;;;;;;;7.70;3.07;;;;;;;;;;5106720;28;20024;-65
2022/07/18 04:03:11;;;;;;;7.93;3.77;;;;;;;;;;5107337;28;20439;-66
2022/07/18 04:05:37;;;;;;;6.50;2.67;;;;;;;;;;5107343;28;20028;-65
2022/07/18 04:08:04;;;;;;;5.13;3.33;;;;;;;;;;5111666;28;20028;-65
2022/07/18 04:10:31;;;;;;;10.53;3.00;;;;;;;;;;5112529;28;20108;-63
2022/07/18 04:12:58;;;;;;;8.13;3.73;;;;;;;;;;5112457;28;20024;-64
2022/07/18 04:15:25;;;;;;;5.40;2.63;;;;;;;;;;5112396;28;20045;-63
2022/07/18 04:17:52;;;;;;;2.40;1.83;;;;;;;;;;5112267;28;20106;-62
2022/07/18 04:20:20;;;;;;;4.03;2.70;;;;;;;;;;5107541;28;20031;-63
2022/07/18 04:22:53;;;;;;;8.97;3.07;;;;;;;;;;5107487;28;20020;-63
2022/07/18 04:25:21;;;;;;;8.17;3.23;;;;;;;;;;5119548;28;20038;-63
2022/07/18 04:27:48;;;;;;;11.83;3.70;;;;;;;;;;5127819;28;20071;-62
2022/07/18 04:30:15;;;;;;;5.77;2.63;;;;;;;;;;5123376;28;20020;-62
2022/07/18 04:32:42;;;;;;;3.97;2.23;;;;;;;;;;5112399;28;20026;-62
2022/07/18 04:35:09;;;;;;;7.80;3.17;;;;;;;;;;5112443;28;20553;-63
2022/07/18 04:37:36;;;;;;;8.07;3.33;;;;;;;;;;5112175;28;20096;-63
2022/07/18 04:40:03;;;;;;;15.03;2.63;;;;;;;;;;5112270;28;20065;-63
2022/07/18 04:42:30;;;;;;;10.70;3.33;;;;;;;;;;5106920;28;20066;-62
2022/07/18 04:44:57;;;;;;;6.80;2.50;;;;;;;;;;5106942;28;20042;-63
2022/07/18 04:47:24;;;;;;;2.90;2.13;;;;;;;;;;5106583;28;20022;-64
2022/07/18 04:49:51;;;;;;;4.60;2.70;;;;;;;;;;5107230;28;20019;-63
2022/07/18 04:52:18;;;;;;;4.93;3.00;;;;;;;;;;5111340;28;20016;-63
2022/07/18 04:54:44;;;;;;;15.70;3.80;;;;;;;;;;5111941;28;20054;-63
2022/07/18 04:57:14;;;;;;;5.90;3.17;;;;;;;;;;5112055;28;20454;-63
2022/07/18 04:59:43;;;;;;;6.03;3.17;;;;;;;;;;5112191;28;20026;-64
2022/07/18 05:02:10;;;;;;;7.10;2.57;;;;;;;;;;5111403;28;20027;-62
2022/07/18 05:04:38;;;;;;;5.63;2.60;;;;;;;;;;5107549;28;20039;-62
2022/07/18 05:07:06;;;;;;;5.50;2.90;;;;;;;;;;5106693;28;20051;-62
2022/07/18 05:09:33;;;;;;;8.43;2.83;;;;;;;;;;5106698;28;20024;-63
2022/07/18 05:11:59;;;;;;;8.13;2.63;;;;;;;;;;5106802;28;20364;-62
2022/07/18 05:14:26;;;;;;;3.77;2.33;;;;;;;;;;5110698;28;20487;-62
2022/07/18 05:16:53;;;;;;;5.50;2.17;;;;;;;;;;5112115;28;20024;-62
2022/07/18 05:19:19;;;;;;;5.90;2.87;;;;;;;;;;5111047;28;20020;-64
2022/07/18 05:21:46;;;;;;;7.03;2.20;;;;;;;;;;5112627;28;20019;-64
2022/07/18 05:24:13;;;;;;;5.60;2.80;;;;;;;;;;5115548;28;20022;-61
2022/07/18 05:26:39;;;;;;;3.40;2.10;;;;;;;;;;5111434;28;20019;-63
2022/07/18 05:29:06;;;;;;;4.57;2.73;;;;;;;;;;5110434;28;20548;-63
2022/07/18 05:31:33;;;;;;;6.67;2.47;;;;;;;;;;5110019;28;20031;-62
2022/07/18 05:33:59;;;;;;;16.63;3.17;;;;;;;;;;5110510;28;20024;-65
2022/07/18 05:36:26;;;;;;;2.50;2.00;;;;;;;;;;5113296;28;20023;-63
2022/07/18 05:38:53;;;;;;;4.03;1.97;;;;;;;;;;5115332;28;20105;-62
2022/07/18 05:41:19;;;;;;;3.00;1.80;;;;;;;;;;5115452;28;20396;-65
2022/07/18 05:43:46;;;;;;;5.67;2.47;;;;;;;;;;5115039;28;20034;-62
2022/07/18 05:46:13;;;;;;;13.03;3.23;;;;;;;;;;5115078;28;20042;-63
2022/07/18 05:48:39;;;;;;;4.07;2.90;;;;;;;;;;5111716;28;20020;-63
2022/07/18 05:51:07;;;;;;;3.13;2.03;;;;;;;;;;5109719;28;20490;-66
2022/07/18 05:53:34;;;;;;;6.70;3.30;;;;;;;;;;5109826;28;20028;-65
2022/07/18 05:56:00;;;;;;;5.90;2.40;;;;;;;;;;5109925;28;20433;-62
2022/07/18 05:58:27;;;;;;;2.50;1.90;;;;;;;;;;5112645;28;20502;-63
2022/07/18 06:00:54;;;;;;;7.70;3.10;;;;;;;;;;5115045;28;20027;-64
2022/07/18 06:03:20;;;;;;;3.83;2.60;;;;;;;;;;5114907;28;20055;-64
2022/07/18 06:05:47;;;;;;;3.43;2.40;;;;;;;;;;5114525;28;20086;-64
2022/07/18 06:08:14;;;;;;;3.33;2.20;;;;;;;;;;5114313;28;20030;-64
2022/07/18 06:10:40;;;;;;;17.87;3.63;;;;;;;;;;5111750;28;20538;-62
2022/07/18 06:13:07;;;;;;;6.47;3.03;;;;;;;;;;5109658;28;20426;-63
2022/07/18 06:15:34;;;;;;;3.73;2.20;;;;;;;;;;5109396;28;20024;-64
2022/07/18 06:18:00;;;;;;;8.60;3.03;;;;;;;;;;5109143;28;20031;-64
2022/07/18 06:20:27;;;;;;;9.90;2.47;;;;;;;;;;5111685;28;20079;-62
2022/07/18 06:22:54;;;;;;;3.67;2.47;;;;;;;;;;5114737;28;20027;-63
2022/07/18 06:25:20;;;;;;;8.90;3.20;;;;;;;;;;5113868;28;20031;-63
2022/07/18 06:27:47;;;;;;;11.43;2.17;;;;;;;;;;5114281;28;20023;-65
2022/07/18 06:30:14;;;;;;;5.30;2.33;;;;;;;;;;5114223;28;20020;-61
2022/07/18 06:32:41;;;;;;;3.97;2.50;;;;;;;;;;5111940;28;20046;-62
2022/07/18 06:35:08;;;;;;;3.43;2.17;;;;;;;;;;5109173;28;20027;-62
2022/07/18 06:37:35;;;;;;;4.67;2.83;;;;;;;;;;5108887;28;20040;-63
2022/07/18 06:40:02;;;;;;;2.60;2.00;;;;;;;;;;5108606;28;20034;-63
2022/07/18 06:42:28;;;;;;;12.87;3.30;;;;;;;;;;5110738;28;20081;-61
2022/07/18 06:44:55;;;;;;;5.87;2.17;;;;;;;;;;5113903;28;20039;-61
2022/07/18 06:47:22;;;;;;;6.10;2.77;;;;;;;;;;5114108;28;20035;-62
2022/07/18 06:49:48;;;;;;;9.17;3.27;;;;;;;;;;5113911;28;20015;-61
2022/07/18 06:52:15;;;;;;;3.67;2.60;;;;;;;;;;5113877;28;20027;-61
2022/07/18 06:54:42;;;;;;;5.20;2.70;;;;;;;;;;5111450;28;20023;-61
2022/07/18 06:57:09;;;;;;;14.87;2.83;;;;;;;;;;5108402;28;20523;-61
2022/07/18 06:59:36;;;;;;;4.07;2.57;;;;;;;;;;5108654;28;20439;-61
2022/07/18 07:02:03;;;;;;;6.87;3.27;;;;;;;;;;5108378;28;20028;-61
2022/07/18 07:04:30;;;;;;;5.80;3.63;;;;;;;;;;5109736;28;20085;-61
2022/07/18 07:06:57;;;;;;;3.23;2.63;;;;;;;;;;5113274;28;20028;-60
2022/07/18 07:09:24;;;;;;;14.73;2.77;;;;;;;;;;5113631;28;20027;-62
2022/07/18 07:11:50;;;;;;;4.97;2.73;;;;;;;;;;5113090;28;20389;-61
2022/07/18 07:14:17;;;;;;;4.27;2.50;;;;;;;;;;5113437;28;20035;-62
2022/07/18 07:16:44;;;;;;;3.53;2.50;;;;;;;;;;5111958;28;20107;-61
2022/07/18 07:19:10;;;;;;;3.53;2.30;;;;;;;;;;5107460;28;20035;-62
2022/07/18 07:21:37;;;;;;;8.47;3.27;;;;;;;;;;5108287;28;20039;-62
2022/07/18 07:24:04;;;;;;;3.63;2.37;;;;;;;;;;5108151;28;20055;-62
2022/07/18 07:26:30;;;;;;;6.20;2.03;;;;;;;;;;5108789;28;20027;-61
2022/07/18 07:28:57;;;;;;;18.87;3.20;;;;;;;;;;5112875;28;20026;-63
2022/07/18 07:31:24;;;;;;;5.20;2.43;;;;;;;;;;5113118;28;20027;-61
2022/07/18 07:33:50;;;;;;;8.23;2.70;;;;;;;;;;5113188;28;20020;-62
2022/07/18 07:36:17;;;;;;;4.50;2.10;;;;;;;;;;5113122;28;20505;-61
2022/07/18 07:38:44;;;;;;;20.27;3.00;;;;;;;;;;5112208;28;20516;-61
2022/07/18 07:41:13;;;;;;;7.10;2.50;;;;;;;;;;5108056;28;20029;-61
2022/07/18 07:43:39;;;;;;;20.20;2.93;;;;;;;;;;5107138;28;20027;-61
2022/07/18 07:46:06;;;;;;;5.03;2.37;;;;;;;;;;5107207;28;20047;-61
2022/07/18 07:48:33;;;;;;;8.57;3.47;;;;;;;;;;5107892;28;20492;-62
2022/07/18 07:51:01;;;;;;;4.57;2.50;;;;;;;;;;5112765;28;20031;-64
2022/07/18 07:53:28;;;;;;;4.47;3.13;;;;;;;;;;5112497;28;20030;-63
2022/07/18 07:55:54;;;;;;;3.23;2.27;;;;;;;;;;5112878;28;20020;-61
2022/07/18 07:58:21;;;;;;;15.13;3.10;;;;;;;;;;5112897;28;20016;-62
2022/07/18 08:00:48;;;;;;;20.03;3.03;;;;;;;;;;5112160;28;20016;-62
2022/07/18 08:03:14;;;;;;;3.93;2.90;;;;;;;;;;5107634;28;20480;-61
2022/07/18 08:05:48;;;;;;;6.87;3.37;;;;;;;;;;5107110;28;20031;-61
2022/07/18 08:08:15;;;;;;;3.13;2.30;;;;;;;;;;5107734;28;20094;-61
2022/07/18 08:10:42;;;;;;;7.87;3.00;;;;;;;;;;5107503;28;20739;-62
2022/07/18 08:13:09;;;;;;;3.70;2.50;;;;;;;;;;5112686;28;20019;-62
2022/07/18 08:15:36;;;;;;;9.03;2.83;;;;;;;;;;5112337;28;20023;-62
2022/07/18 08:18:02;;;;;;;7.53;3.23;;;;;;;;;;5105106;28;20076;-62
2022/07/18 08:20:30;;;;;;;8.27;3.13;;;;;;;;;;5112642;28;20024;-62
2022/07/18 08:23:05;;;;;;;4.17;2.57;;;;;;;;;;5112209;28;20027;-62
2022/07/18 08:25:32;;;;;;;4.57;2.75;;;;;;;;;;5106922;28;21051;-62
2022/07/18 08:27:59;;;;;;;3.60;1.90;;;;;;;;;;5106522;28;20024;-62
2022/07/18 08:30:26;;;;;;;2.47;1.63;;;;;;;;;;5106660;28;20428;-62
2022/07/18 08:32:53;;;;;;;6.57;3.07;;;;;;;;;;5107014;28;20363;-62
2022/07/18 08:35:20;;;;;;;9.37;2.90;;;;;;;;;;5112288;28;20027;-62
2022/07/18 08:37:46;;;;;;;5.77;3.10;;;;;;;;;;5112197;28;20134;-62
2022/07/18 08:40:14;;;;;;;5.43;2.73;;;;;;;;;;5112175;28;20207;-62
2022/07/18 08:42:41;;;;;;;4.53;3.30;;;;;;;;;;5112451;28;20020;-62
2022/07/18 08:45:08;;;;;;;6.23;2.60;;;;;;;;;;5111583;28;20111;-62
2022/07/18 08:47:35;;;;;;;5.70;2.97;;;;;;;;;;5106900;28;20595;-62
2022/07/18 08:50:02;;;;;;;4.13;2.83;;;;;;;;;;5106901;28;20024;-62
2022/07/18 08:52:29;;;;;;;2.63;1.93;;;;;;;;;;5106735;28;20024;-62
2022/07/18 08:54:56;;;;;;;3.27;2.37;;;;;;;;;;5106101;28;20034;-62
2022/07/18 08:57:23;;;;;;;6.03;3.27;;;;;;;;;;5113294;28;20023;-62
2022/07/18 08:59:51;;;;;;;5.50;2.53;;;;;;;;;;5115662;28;20055;-62
2022/07/18 09:02:17;;;;;;;4.10;2.93;;;;;;;;;;5115964;28;20031;-62
2022/07/18 09:04:45;;;;;;;2.57;1.97;;;;;;;;;;5115855;28;20028;-61
2022/07/18 09:07:24;;;;;;;3.47;2.87;;;;;;;;;;5115656;28;20020;-61
2022/07/18 09:09:56;;;;;;;5.13;2.87;;;;;;;;;;5110524;28;20027;-62
2022/07/18 09:12:22;;;;;;;6.63;3.03;;;;;;;;;;5110268;28;20027;-62
2022/07/18 09:14:49;;;;;;;3.93;2.47;;;;;;;;;;5110678;28;20461;-62
2022/07/18 09:17:23;;;;;;;10.90;2.83;;;;;;;;;;5110086;28;20027;-62
2022/07/18 09:20:05;;;;;;;6.90;3.03;;;;;;;;;;5115508;28;20047;-62
2022/07/18 09:22:33;;;;;;;2.77;1.97;;;;;;;;;;5115273;28;20099;-62
2022/07/18 09:25:02;;;;;;;25.67;4.33;;;;;;;;;;5115721;28;20024;-62
2022/07/18 09:27:29;;;;;;;6.87;2.80;;;;;;;;;;5115771;28;20630;-62
2022/07/18 09:30:09;;;;;;;11.47;3.50;;;;;;;;;;5114326;28;20050;-62
2022/07/18 09:32:39;;;;;;;3.13;2.57;;;;;;;;;;5109753;28;20041;-61
2022/07/18 09:35:07;;;;;;;2.77;2.33;;;;;;;;;;5109924;28;20028;-62
2022/07/18 09:37:34;;;;;;;3.87;2.70;;;;;;;;;;5110056;28;20031;-62
2022/07/18 09:40:17;;;;;;;6.40;4.07;;;;;;;;;;5110867;28;20050;-62
2022/07/18 09:42:45;;;;;;;2.63;2.00;;;;;;;;;;5115379;28;20347;-61
2022/07/18 09:45:11;;;;;;;5.17;3.30;;;;;;;;;;5115051;28;20089;-61
2022/07/18 09:48:01;;;;;;;3.60;2.50;;;;;;;;;;5115329;28;20613;-62
2022/07/18 09:50:29;;;;;;;5.20;2.30;;;;;;;;;;5104689;28;20093;-61
2022/07/18 09:53:00;;;;;;;5.47;2.67;;;;;;;;;;5112348;28;20077;-62
2022/07/18 09:55:27;;;;;;;4.77;3.53;;;;;;;;;;5109086;28;20114;-62
2022/07/18 09:58:07;;;;;;;2.73;2.50;;;;;;;;;;5109589;28;20107;-62
2022/07/18 10:00:38;;;;;;;5.93;2.00;;;;;;;;;;5109792;28;20486;-61
2022/07/18 10:03:06;;;;;;;3.97;3.13;;;;;;;;;;5112360;28;20016;-62
2022/07/18 10:05:34;;;;;;;4.20;2.77;;;;;;;;;;5114474;28;20024;-62
2022/07/18 10:08:01;;;;;;;6.13;3.73;;;;;;;;;;5114269;28;20037;-62
2022/07/18 10:10:29;;;;;;;7.30;3.80;;;;;;;;;;5115000;28;20033;-62
2022/07/18 10:12:56;;;;;;;7.77;3.63;;;;;;;;;;5114764;28;20026;-62
2022/07/18 10:15:24;;;;;;;7.23;3.53;;;;;;;;;;5111929;28;20477;-62
2022/07/18 10:17:50;;;;;;;4.50;2.80;;;;;;;;;;5109016;28;20020;-62
2022/07/18 10:20:17;;;;;;;14.97;4.43;;;;;;;;;;5109358;28;20027;-61
2022/07/18 10:22:45;;;;;;;7.13;3.50;;;;;;;;;;5109115;28;20043;-62
2022/07/18 10:25:13;;;;;;;4.33;3.47;;;;;;;;;;5111888;28;20537;-62
2022/07/18 10:27:49;;;;;;;4.00;2.90;;;;;;;;;;5114437;28;20106;-61
2022/07/18 10:30:16;;;;;;;4.67;3.40;;;;;;;;;;5114419;28;20741;-62
2022/07/18 10:32:43;;;;;;;5.27;3.60;;;;;;;;;;5114542;28;20047;-61
2022/07/18 10:35:10;;;;;;;4.63;3.23;;;;;;;;;;5113731;28;20027;-61
2022/07/18 10:37:37;;;;;;;5.87;2.97;;;;;;;;;;5111308;28;20063;-62
2022/07/18 10:40:27;;;;;;;20.20;2.93;;;;;;;;;;5109206;28;20378;-62
2022/07/18 10:43:13;;;;;;;3.47;2.70;;;;;;;;;;5108979;28;20024;-62
2022/07/18 10:45:46;;;;;;;3.90;2.88;;;;;;;;;;5108634;28;20096;-61
2022/07/18 10:48:31;;;;;;;7.73;4.10;;;;;;;;;;5112969;28;20023;-61
2022/07/18 10:51:01;;;;;;;7.32;3.53;;;;;;;;;;5114210;28;20412;-61
2022/07/18 10:53:46;;;;;;;5.77;3.53;;;;;;;;;;5114072;28;20098;-61
2022/07/18 10:56:13;;;;;;;6.15;3.25;;;;;;;;;;5113960;28;20058;-61
2022/07/18 10:58:40;;;;;;;4.47;3.23;;;;;;;;;;5113595;28;20475;-62
2022/07/18 11:01:10;;;;;;;5.37;3.37;;;;;;;;;;5108654;28;20022;-62
2022/07/18 11:03:37;;;;;;;5.00;3.67;;;;;;;;;;5108414;28;20500;-61
2022/07/18 11:06:04;;;;;;;5.97;3.13;;;;;;;;;;5108463;28;20046;-62
2022/07/18 11:08:33;;;;;;;9.73;2.87;;;;;;;;;;5108028;28;20020;-62
2022/07/18 11:11:02;;;;;;;3.17;2.77;;;;;;;;;;5113904;28;20019;-61
2022/07/18 11:13:31;;;;;;;2.77;2.13;;;;;;;;;;5113809;28;20028;-61
2022/07/18 11:16:02;;;;;;;7.77;3.60;;;;;;;;;;5113425;28;20107;-62
2022/07/18 11:18:28;;;;;;;34.53;4.43;;;;;;;;;;5113508;28;20418;-61
2022/07/18 11:20:56;;;;;;;7.00;3.90;;;;;;;;;;5111961;28;20028;-62
2022/07/18 11:23:29;;;;;;;4.90;2.67;;;;;;;;;;5108062;28;20035;-61
2022/07/18 11:25:58;;;;;;;3.87;2.77;;;;;;;;;;5107893;28;20039;-61
2022/07/18 11:28:26;;;;;;;6.10;4.10;;;;;;;;;;5108301;28;20028;-61
2022/07/18 11:31:04;;;;;;;5.43;4.07;;;;;;;;;;5108257;28;20077;-61
2022/07/18 11:33:31;;;;;;;6.87;3.90;;;;;;;;;;5113467;28;20015;-61
2022/07/18 11:36:05;;;;;;;4.63;3.80;;;;;;;;;;5112551;28;20032;-61
2022/07/18 11:38:31;;;;;;;8.07;3.90;;;;;;;;;;5092953;28;20114;-61
2022/07/18 11:40:58;;;;;;;11.13;3.90;;;;;;;;;;5092638;28;20028;-61
2022/07/18 11:43:25;;;;;;;4.07;2.93;;;;;;;;;;5091494;28;20026;-61
2022/07/18 11:46:02;;;;;;;6.07;3.10;;;;;;;;;;5087246;28;20087;-61
2022/07/18 11:48:29;;;;;;;7.10;4.03;;;;;;;;;;5105655;28;20032;-61
2022/07/18 11:50:56;;;;;;;3.27;2.37;;;;;;;;;;5107885;28;20032;-64
2022/07/18 11:53:23;;;;;;;5.50;3.73;;;;;;;;;;5108558;28;20024;-61
2022/07/18 11:55:50;;;;;;;4.43;2.77;;;;;;;;;;5112464;28;20381;-62
2022/07/18 11:58:18;;;;;;;3.80;2.93;;;;;;;;;;5112779;28;20366;-62
2022/07/18 12:00:45;;;;;;;9.30;3.47;;;;;;;;;;5113003;28;20022;-61
2022/07/18 12:03:30;;;;;;;11.90;4.17;;;;;;;;;;5112916;28;20024;-61
2022/07/18 12:05:57;;;;;;;2.15;1.95;;;;;;;;;;5110748;28;20039;-61
2022/07/18 12:08:27;;;;;;;6.43;4.23;;;;;;;;;;5107193;28;20110;-61
2022/07/18 12:11:04;;;;;;;4.37;2.80;;;;;;;;;;5107193;28;20613;-61
2022/07/18 12:13:40;;;;;;;10.20;5.10;;;;;;;;;;5107410;28;20016;-61
2022/07/18 12:16:07;;;;;;;7.03;4.27;;;;;;;;;;5109217;28;20412;-61
2022/07/18 12:18:34;;;;;;;15.57;4.40;;;;;;;;;;5112263;28;20024;-62
2022/07/18 12:21:08;;;;;;;10.80;4.13;;;;;;;;;;5112686;28;20019;-61
2022/07/18 12:23:34;;;;;;;8.37;3.37;;;;;;;;;;5112353;28;20122;-61
2022/07/18 12:26:01;;;;;;;5.97;4.30;;;;;;;;;;5112356;28;20032;-61
2022/07/18 12:28:28;;;;;;;4.07;3.50;;;;;;;;;;5110024;28;20382;-61
2022/07/18 12:30:55;;;;;;;4.30;3.50;;;;;;;;;;5107856;28;20024;-61
2022/07/18 12:33:22;;;;;;;6.40;4.60;;;;;;;;;;5111134;28;20023;-61
2022/07/18 12:35:58;;;;;;;6.33;4.97;;;;;;;;;;5111511;28;20042;-61
2022/07/18 12:38:24;;;;;;;4.77;2.93;;;;;;;;;;5113818;28;20483;-61
2022/07/18 12:40:53;;;;;;;7.97;4.63;;;;;;;;;;5116355;28;20020;-61
2022/07/18 12:43:27;;;;;;;5.97;4.17;;;;;;;;;;5116720;28;20027;-61
2022/07/18 12:45:54;;;;;;;7.07;4.57;;;;;;;;;;5116504;28;20051;-62
2022/07/18 12:48:22;;;;;;;4.67;4.17;;;;;;;;;;5116730;28;20023;-61
2022/07/18 12:50:56;;;;;;;6.70;4.97;;;;;;;;;;5113468;28;20042;-61
2022/07/18 12:53:23;;;;;;;6.88;3.90;;;;;;;;;;5111161;28;20369;-61
2022/07/18 12:55:49;;;;;;;5.50;4.13;;;;;;;;;;5110953;28;20035;-61
2022/07/18 12:58:16;;;;;;;9.50;5.10;;;;;;;;;;5110778;28;20112;-61
2022/07/18 13:00:44;;;;;;;5.23;3.67;;;;;;;;;;5113409;28;20027;-61
2022/07/18 13:03:10;;;;;;;4.53;3.83;;;;;;;;;;5115956;28;20023;-61
2022/07/18 13:05:37;;;;;;;4.37;3.03;;;;;;;;;;5116214;28;20035;-61
2022/07/18 13:08:06;;;;;;;4.43;3.13;;;;;;;;;;5116174;28;20048;-62
2022/07/18 13:10:33;;;;;;;7.20;4.80;;;;;;;;;;5116062;28;20080;-63
2022/07/18 13:13:02;;;;;;;5.17;3.90;;;;;;;;;;5113002;28;20024;-61
2022/07/18 13:15:28;;;;;;;5.57;4.20;;;;;;;;;;5110424;28;20047;-61
2022/07/18 13:17:55;;;;;;;6.03;4.57;;;;;;;;;;5110440;28;20089;-61
2022/07/18 13:20:22;;;;;;;5.53;4.10;;;;;;;;;;5110490;28;20049;-62
2022/07/18 13:22:49;;;;;;;11.17;5.03;;;;;;;;;;5112504;28;20077;-62
2022/07/18 13:25:16;;;;;;;12.27;5.77;;;;;;;;;;5115493;28;20041;-61
2022/07/18 13:27:43;;;;;;;7.30;4.53;;;;;;;;;;5114236;28;20028;-62
2022/07/18 13:30:10;;;;;;;8.33;5.43;;;;;;;;;;5115346;28;20035;-61
2022/07/18 13:32:37;;;;;;;9.83;4.63;;;;;;;;;;5115760;28;20374;-61
2022/07/18 13:35:04;;;;;;;6.07;4.40;;;;;;;;;;5112801;28;20023;-62
2022/07/18 13:37:31;;;;;;;5.20;3.83;;;;;;;;;;5109554;28;20072;-61
2022/07/18 13:39:57;;;;;;;5.47;3.57;;;;;;;;;;5108165;28;20042;-62
2022/07/18 13:42:24;;;;;;;5.63;4.10;;;;;;;;;;5107992;28;20037;-61
2022/07/18 13:44:51;;;;;;;10.50;4.80;;;;;;;;;;5110829;28;20024;-61
2022/07/18 13:47:17;;;;;;;6.97;4.97;;;;;;;;;;5115223;28;20020;-61
2022/07/18 13:49:46;;;;;;;7.33;4.03;;;;;;;;;;5115239;28;20020;-62
2022/07/18 13:52:13;;;;;;;11.20;4.47;;;;;;;;;;5115157;28;20103;-62
2022/07/18 13:54:39;;;;;;;7.30;4.17;;;;;;;;;;5115251;28;20024;-62
2022/07/18 13:57:06;;;;;;;5.40;3.53;;;;;;;;;;5113375;28;20023;-62
2022/07/18 13:59:33;;;;;;;9.73;4.70;;;;;;;;;;5109035;28;20084;-62
2022/07/18 14:01:59;;;;;;;18.00;4.93;;;;;;;;;;5109458;28;20027;-62
2022/07/18 14:04:26;;;;;;;11.60;5.37;;;;;;;;;;5109263;28;20034;-62
2022/07/18 14:06:53;;;;;;;9.47;4.03;;;;;;;;;;5110395;28;20035;-62
2022/07/18 14:09:20;;;;;;;10.60;4.43;;;;;;;;;;5114846;28;20020;-62
2022/07/18 14:11:46;;;;;;;8.27;3.93;;;;;;;;;;5114805;28;20020;-62
2022/07/18 14:14:13;;;;;;;8.07;5.03;;;;;;;;;;5114977;28;20463;-62
2022/07/18 14:16:39;;;;;;;7.33;4.17;;;;;;;;;;5114479;28;20469;-62
2022/07/18 14:19:06;;;;;;;9.70;4.33;;;;;;;;;;5113348;28;20059;-62
2022/07/18 14:21:33;;;;;;;9.33;4.50;;;;;;;;;;5109208;28;20033;-62
2022/07/18 14:24:00;;;;;;;5.93;3.70;;;;;;;;;;5108859;28;20023;-62
2022/07/18 14:26:26;;;;;;;6.67;4.20;;;;;;;;;;5109046;28;20099;-62
2022/07/18 14:28:53;;;;;;;8.40;4.23;;;;;;;;;;5109575;28;20051;-62
2022/07/18 14:31:20;;;;;;;9.33;4.63;;;;;;;;;;5114198;28;20028;-62
2022/07/18 14:33:47;;;;;;;8.33;4.67;;;;;;;;;;5114725;28;20351;-62
2022/07/18 14:36:15;;;;;;;7.37;4.47;;;;;;;;;;5114329;28;20817;-62
2022/07/18 14:38:42;;;;;;;7.17;4.50;;;;;;;;;;5114511;28;20051;-62
2022/07/18 14:41:09;;;;;;;5.93;4.00;;;;;;;;;;5113366;28;20031;-62
2022/07/18 14:43:35;;;;;;;6.97;4.07;;;;;;;;;;5108604;28;20044;-62